Archival Weather

John F Kennedy Intl

New York, New York (KJFK)

Report from: Thursday, September 21, 2023 5:51 AM EDT
Current time: Sunday, February 25, 2024 4:45 PM EST

Current weather – Weather history – Daily summaries
Weather forecast

Temperature13.9°C (57.0°F)
Dew point10.0°C (50.0°F)
Winds 8 kts (4.1 m/s, 9.2 mph) North (360°)
Visibility10 mi. (16.1 km)
Clouds Few clouds 25,000 ft. (7,620 m)
Altimeter30.23 in.Hg (1024 mB)
Relative humidity77 %
Density altitude-309 ft. (-94 m)
Sea-level pressure102.4 kPa (1024 mB, 30.23 in.Hg)
Remarks System requires maintenance
Automated weather observing station with precipitation discriminator
Flight conditions Visual Meteorological Conditions
Raw dataKJFK 210951Z 36008KT 10SM FEW250 14/10 A3023 RMK AO2 SLP237 T01390100 $
An error has occurred. This application may no longer respond until reloaded. Reload 🗙